createdAt,value
2023-05-19T00:00:07.612Z,12.91
2023-05-19T00:05:34.146Z,12.98
2023-05-19T00:10:56.353Z,12.97
2023-05-19T00:16:18.790Z,13.08
2023-05-19T00:21:41.036Z,13.23
2023-05-19T00:27:02.840Z,13.62
2023-05-19T00:32:24.155Z,13.62
2023-05-19T00:37:46.044Z,13.72
2023-05-19T00:43:09.048Z,13.77
2023-05-19T00:48:31.756Z,13.84
2023-05-19T00:53:54.935Z,13.80
2023-05-19T00:59:17.485Z,13.79
2023-05-19T01:04:42.247Z,13.87
2023-05-19T01:10:04.849Z,13.91
2023-05-19T01:15:28.825Z,13.88
2023-05-19T01:21:16.654Z,13.86
2023-05-19T01:27:27.093Z,13.84
2023-05-19T01:32:49.973Z,13.87
2023-05-19T01:38:17.202Z,13.85
2023-05-19T01:43:41.299Z,13.69
2023-05-19T01:49:03.841Z,13.71
2023-05-19T01:54:26.260Z,13.69
2023-05-19T01:59:48.317Z,13.54
2023-05-19T02:05:35.604Z,13.45
2023-05-19T02:11:19.581Z,13.38
2023-05-19T02:16:45.888Z,13.45
2023-05-19T02:22:08.245Z,13.23
2023-05-19T02:27:30.677Z,12.99
2023-05-19T02:32:54.736Z,12.89
2023-05-19T02:38:17.249Z,12.77
2023-05-19T02:43:39.872Z,12.78
2023-05-19T02:49:02.048Z,12.85
2023-05-19T02:54:24.388Z,12.68
2023-05-19T02:59:46.456Z,12.66
2023-05-19T03:05:08.993Z,12.67
2023-05-19T03:10:31.632Z,12.65
2023-05-19T03:15:54.173Z,12.73
2023-05-19T03:21:16.267Z,12.64
2023-05-19T03:26:38.107Z,12.62
2023-05-19T03:32:01.233Z,12.56
2023-05-19T03:37:23.826Z,12.62
2023-05-19T03:42:45.614Z,12.58
2023-05-19T03:48:08.202Z,12.49
2023-05-19T03:53:50.017Z,12.46
2023-05-19T03:59:13.600Z,12.50
2023-05-19T04:04:38.455Z,12.33
2023-05-19T04:10:00.385Z,11.95
2023-05-19T04:15:25.621Z,12.07
2023-05-19T04:20:48.250Z,12.03
2023-05-19T04:26:10.356Z,12.03
2023-05-19T04:31:34.832Z,11.68
2023-05-19T04:37:03.183Z,11.52
2023-05-19T04:42:26.691Z,11.48
2023-05-19T04:47:50.302Z,11.49
2023-05-19T04:53:14.978Z,11.82
2023-05-19T04:58:40.116Z,11.57
2023-05-19T05:04:04.772Z,11.51
2023-05-19T05:09:27.882Z,11.49
2023-05-19T05:14:53.150Z,11.79
2023-05-19T05:20:20.010Z,11.89
2023-05-19T05:25:43.835Z,11.92
2023-05-19T05:31:07.021Z,11.67
2023-05-19T05:36:29.609Z,11.34
2023-05-19T05:41:51.551Z,11.30
2023-05-19T05:47:16.012Z,11.07
2023-05-19T05:52:41.967Z,11.11
2023-05-19T05:58:04.130Z,11.09
2023-05-19T06:03:27.375Z,10.94
2023-05-19T06:08:51.558Z,11.28
2023-05-19T06:14:13.660Z,11.04
2023-05-19T06:19:59.572Z,11.08
2023-05-19T06:25:21.814Z,11.62
2023-05-19T06:30:45.769Z,11.42
2023-05-19T06:36:24.581Z,11.28
2023-05-19T06:41:50.141Z,11.23
2023-05-19T06:47:38.990Z,11.51
2023-05-19T06:53:01.084Z,11.33
2023-05-19T06:58:24.768Z,11.27
2023-05-19T07:03:47.406Z,11.42
2023-05-19T07:09:14.500Z,11.57
2023-05-19T07:14:39.454Z,11.56
2023-05-19T07:20:02.497Z,11.66
2023-05-19T07:25:27.686Z,11.82
2023-05-19T07:31:03.479Z,11.62
2023-05-19T07:36:25.439Z,12.10
2023-05-19T07:41:53.142Z,12.14
2023-05-19T07:47:15.396Z,12.29
2023-05-19T07:52:37.644Z,12.08
2023-05-19T07:57:59.507Z,12.17
2023-05-19T08:03:23.707Z,12.65
2023-05-19T08:08:45.350Z,12.61
2023-05-19T08:14:08.998Z,12.54
2023-05-19T08:19:31.844Z,12.73
2023-05-19T08:24:57.037Z,12.93
2023-05-19T08:30:19.682Z,13.24
2023-05-19T08:35:42.564Z,13.56
2023-05-19T08:41:04.589Z,13.51
2023-05-19T08:46:27.410Z,13.32
2023-05-19T08:52:49.525Z,13.69
2023-05-19T08:58:13.707Z,13.73
2023-05-19T09:03:39.797Z,13.85
2023-05-19T09:09:02.484Z,14.14
2023-05-19T09:14:25.233Z,14.24
2023-05-19T09:19:50.907Z,14.30
2023-05-19T09:25:25.878Z,14.62
2023-05-19T09:30:48.256Z,14.42
2023-05-19T09:36:09.616Z,14.49
2023-05-19T09:41:32.020Z,14.68
2023-05-19T09:46:55.010Z,14.62
2023-05-19T09:52:16.855Z,14.32
2023-05-19T09:57:39.450Z,14.61
2023-05-19T10:03:02.699Z,15.01
2023-05-19T10:08:26.998Z,15.28
2023-05-19T10:13:51.782Z,15.17
2023-05-19T10:19:15.658Z,15.15
2023-05-19T10:24:40.569Z,14.98
2023-05-19T10:30:13.231Z,15.39
2023-05-19T10:36:15.011Z,15.95
2023-05-19T10:41:59.723Z,15.61
2023-05-19T10:47:28.312Z,15.81
2023-05-19T10:52:57.397Z,15.26
2023-05-19T10:58:50.378Z,15.36
2023-05-19T11:04:16.512Z,15.46
2023-05-19T11:09:41.849Z,15.60
2023-05-19T11:15:04.163Z,15.53
2023-05-19T11:20:27.981Z,15.62
2023-05-19T11:25:52.700Z,15.71
2023-05-19T11:31:15.342Z,15.68
2023-05-19T11:36:38.042Z,15.68
2023-05-19T11:41:59.852Z,16.02
2023-05-19T11:47:22.378Z,16.10
2023-05-19T11:52:48.198Z,16.33
2023-05-19T11:58:10.164Z,16.24
2023-05-19T12:03:33.507Z,15.59
2023-05-19T12:08:56.112Z,16.05
2023-05-19T12:14:19.048Z,16.46
2023-05-19T12:19:43.657Z,16.07
2023-05-19T12:25:06.523Z,16.91
2023-05-19T12:30:31.691Z,16.48
2023-05-19T12:35:55.147Z,16.59
2023-05-19T12:41:19.940Z,16.41
2023-05-19T12:46:42.190Z,16.25
2023-05-19T12:52:07.837Z,16.56
2023-05-19T12:57:38.840Z,16.30
2023-05-19T13:03:10.600Z,15.82
2023-05-19T13:08:32.808Z,15.94
2023-05-19T13:13:54.689Z,16.22
2023-05-19T13:24:45.904Z,16.53
2023-05-19T13:30:08.459Z,16.49
2023-05-19T13:35:37.785Z,16.46
2023-05-19T13:41:00.482Z,16.65
2023-05-19T13:46:32.676Z,16.79
2023-05-19T13:52:05.523Z,16.98
2023-05-19T13:57:27.566Z,16.91
2023-05-19T14:02:49.858Z,16.57
2023-05-19T14:08:12.068Z,16.81
2023-05-19T14:13:37.207Z,16.65
2023-05-19T14:19:01.846Z,16.36
2023-05-19T14:24:24.214Z,16.66
2023-05-19T14:29:46.604Z,16.30
2023-05-19T14:35:09.715Z,16.36
2023-05-19T14:40:32.229Z,16.51
2023-05-19T14:45:54.377Z,16.37
2023-05-19T14:51:16.354Z,16.46
2023-05-19T14:56:38.880Z,16.37
2023-05-19T15:02:00.991Z,15.71
2023-05-19T15:07:23.095Z,15.81
2023-05-19T15:12:45.166Z,15.96
2023-05-19T15:18:07.259Z,15.90
2023-05-19T15:23:29.475Z,15.47
2023-05-19T15:28:53.169Z,15.73
2023-05-19T15:34:15.603Z,15.73
2023-05-19T15:39:37.981Z,15.39
2023-05-19T15:45:00.435Z,15.49
2023-05-19T15:50:22.600Z,15.24
2023-05-19T15:55:45.018Z,15.55
2023-05-19T16:01:07.893Z,15.08
2023-05-19T16:06:31.733Z,15.06
2023-05-19T16:11:53.888Z,14.85
2023-05-19T16:17:15.880Z,14.98
2023-05-19T16:22:37.860Z,14.70
2023-05-19T16:27:59.784Z,14.47
2023-05-19T16:33:33.051Z,14.37
2023-05-19T16:38:55.493Z,14.07
2023-05-19T16:44:20.485Z,14.05
2023-05-19T16:49:44.621Z,13.90
2023-05-19T16:55:07.678Z,13.64
2023-05-19T17:00:30.511Z,13.59
2023-05-19T17:05:53.142Z,13.57
2023-05-19T17:11:15.377Z,13.27
2023-05-19T17:16:37.920Z,13.06
2023-05-19T17:22:00.182Z,12.89
2023-05-19T17:27:23.809Z,12.89
2023-05-19T17:32:46.012Z,12.77
2023-05-19T17:38:08.673Z,12.51
2023-05-19T17:43:30.769Z,12.43
2023-05-19T17:48:52.947Z,12.12
2023-05-19T17:54:15.698Z,12.00
2023-05-19T17:59:37.962Z,11.87
2023-05-19T18:05:00.974Z,12.09
2023-05-19T18:10:26.383Z,11.84
2023-05-19T18:15:49.380Z,11.73
2023-05-19T18:21:14.945Z,11.62
2023-05-19T18:26:42.423Z,11.49
2023-05-19T18:32:05.144Z,11.34
2023-05-19T18:37:27.895Z,11.29
2023-05-19T18:42:50.002Z,11.30
2023-05-19T18:48:12.712Z,11.35
2023-05-19T18:53:37.773Z,11.20
2023-05-19T18:59:00.425Z,11.16
2023-05-19T19:04:23.095Z,11.04
2023-05-19T19:10:23.026Z,10.90
2023-05-19T19:15:46.162Z,10.84
2023-05-19T19:22:23.573Z,10.81
2023-05-19T19:27:48.353Z,10.72
2023-05-19T19:33:10.826Z,10.52
2023-05-19T19:38:33.137Z,10.53
2023-05-19T19:43:55.651Z,10.52
2023-05-19T19:49:17.912Z,10.58
2023-05-19T19:54:40.295Z,10.57
2023-05-19T20:00:08.799Z,10.56
2023-05-19T20:05:32.178Z,10.36
2023-05-19T20:10:54.879Z,10.34
2023-05-19T20:16:19.013Z,10.31
2023-05-19T20:21:41.568Z,10.24
2023-05-19T20:27:04.152Z,10.21
2023-05-19T20:32:26.644Z,10.19
2023-05-19T20:37:50.161Z,10.14
2023-05-19T20:43:13.085Z,10.19
2023-05-19T20:48:49.336Z,10.06
2023-05-19T20:54:12.133Z,10.12
2023-05-19T20:59:34.365Z,10.02
2023-05-19T21:04:56.684Z,10.07
2023-05-19T21:10:19.075Z,10.06
2023-05-19T21:15:42.086Z,10.10
2023-05-19T21:21:04.701Z,10.04
2023-05-19T21:26:27.437Z,10.03
2023-05-19T21:31:49.275Z,9.99
2023-05-19T21:37:11.658Z,9.92
2023-05-19T21:42:33.688Z,9.97
2023-05-19T21:47:56.328Z,9.89
2023-05-19T21:53:18.782Z,9.76
2023-05-19T21:58:43.712Z,9.66
2023-05-19T22:04:06.266Z,9.70
2023-05-19T22:09:28.319Z,9.74
2023-05-19T22:14:50.553Z,9.76
2023-05-19T22:20:13.191Z,9.94
2023-05-19T22:25:35.235Z,9.93
2023-05-19T22:30:57.528Z,9.88
2023-05-19T22:36:19.837Z,9.76
2023-05-19T22:41:42.973Z,9.91
2023-05-19T22:47:05.401Z,9.84
2023-05-19T22:52:27.635Z,9.94
2023-05-19T22:57:49.630Z,9.94
2023-05-19T23:03:12.128Z,9.94
2023-05-19T23:08:34.114Z,10.01
2023-05-19T23:13:56.877Z,9.97
2023-05-19T23:19:20.819Z,9.93
2023-05-19T23:24:42.951Z,10.01
2023-05-19T23:30:05.320Z,10.04
2023-05-19T23:35:27.607Z,9.98
2023-05-19T23:40:49.762Z,9.87
2023-05-19T23:46:11.979Z,9.93
2023-05-19T23:51:34.630Z,9.91
2023-05-19T23:56:57.120Z,9.85
